Ikan Parang — 9V9099 — position and weather

sailwx.info

Track history (hours):
 
Tides and Currents Weather Stations Pressure Air Temp Water Temp Dewpoint Dewpoint Depression Visibility Wind Speed Wind Dir Waves Ship Positions

Ikan Parang

Last reported at 2017-Feb-18 18:21 UTC. Time now 2017-Feb-21 17:27 UTC.
Position N 01°15' E 104°05'.

Length 183 m; draft 7.1 m.

Type: Cargo ship. MMSI: 566238000.

Date/timePositionNaut miles runAvg speedWind from/ knotsBaromVisibWave heightAir tempDewpointWater temp
2017-Feb-18 18:21N 01°15' E 104°05'7 8.6
2017-Feb-18 17:33N 01°16' E 103°58'2 2.0
2017-Feb-18 16:30N 01°17' E 103°56'0 0.0
2017-Feb-18 15:24N 01°17' E 103°56'0 0.0
2017-Feb-18 14:33N 01°17' E 103°56'0 0.0
2017-Feb-18 13:27N 01°17' E 103°56'0 0.0
2017-Feb-18 12:30N 01°17' E 103°56'0 0.0
2017-Feb-18 11:30N 01°17' E 103°56'0 0.0
2017-Feb-18 10:33N 01°17' E 103°56'0 0.1
2017-Feb-18 09:24N 01°17' E 103°56'0 0.1
2017-Feb-18 08:33N 01°17' E 103°56'1 0.5
2017-Feb-18 07:33N 01°17' E 103°55'10 9.0
2017-Feb-18 06:26N 01°18' E 104°06'  
2017-Feb-15 06:25N 01°21' E 104°04'2 0.5
2017-Feb-15 03:03N 01°19' E 104°04'  
Track history (hours):
 
Tides and Currents Weather Stations Pressure Air Temp Water Temp Dewpoint Dewpoint Depression Visibility Wind Speed Wind Dir Waves Ship Positions

Ikan Parang

Last reported at 2017-Feb-18 18:21 UTC. Time now 2017-Feb-21 17:27 UTC.
Position N 01°15' E 104°05'.

Length 183 m; draft 7.1 m.

Type: Cargo ship. MMSI: 566238000.

Date/timePositionNaut miles runAvg speedWind from/ knotsBaromVisibWave heightAir tempDewpointWater temp
2017-Feb-18 18:21N 01°15' E 104°05'7 8.6
2017-Feb-18 17:33N 01°16' E 103°58'2 2.0
2017-Feb-18 16:30N 01°17' E 103°56'0 0.0
2017-Feb-18 15:24N 01°17' E 103°56'0 0.0
2017-Feb-18 14:33N 01°17' E 103°56'0 0.0
2017-Feb-18 13:27N 01°17' E 103°56'0 0.0
2017-Feb-18 12:30N 01°17' E 103°56'0 0.0
2017-Feb-18 11:30N 01°17' E 103°56'0 0.0
2017-Feb-18 10:33N 01°17' E 103°56'0 0.1
2017-Feb-18 09:24N 01°17' E 103°56'0 0.1
2017-Feb-18 08:33N 01°17' E 103°56'1 0.5
2017-Feb-18 07:33N 01°17' E 103°55'10 9.0
2017-Feb-18 06:26N 01°18' E 104°06'  
2017-Feb-15 06:25N 01°21' E 104°04'2 0.5
2017-Feb-15 03:03N 01°19' E 104°04'  

Dump ship's entire track history